Cecil, OH (45821)

9:10 AM EDT on August 27, 2014 (GMT -0400)
3 miles WNW of Melrose | Change Station
CLOSE
Current Station
Personal Weather Station
Location: Paulding County, OH
Elevation: 722 ft
Nearby Weather Stations

Elev 722 ft 41.10 °N, 84.48 °W | Updated 8 seconds ago

Partly Cloudy
Partly Cloudy
71.6 °F
Feels Like 71.6 °F
N
2.0
Wind Variable Wind from NW
Gusts 2.0 mph

Today
High -- | Low -- °F
--% Chance of Precip.
Yesterday
High -- | Low -- °F
Precip. -- in
6:59 AM 8:19 PM
Waxing Crescent, 3% visible
Pressure 30.12 in
Visibility 10.0 miles
Clouds Few 700 ft
Scattered Clouds 7000 ft
Mostly Cloudy 8500 ft
Dew Point 70 °F
Humidity 94%
Rainfall 0.00 in
Snow Depth Not available.
UV 1 out of 12
Pollen 10.00 out of 12
Air Quality Not available.
Flu Activity Not available.
SPECI KDFI 271303Z AUTO 01005KT 10SM FEW007 SCT070 BKN085 21/18 A3012 RMK AO2 RAE1258 P0000 T02110183

More Conditions Fewer Conditions

Pressure 30.12 in
Visibility 10.0 miles
Clouds Few 700 ft
Scattered Clouds 7000 ft
Mostly Cloudy 8500 ft
Dew Point 70 °F
Humidity 94%
Rainfall 0.00 in
Snow Depth Not available.
UV 1 out of 12
Pollen 10.00 out of 12
Air Quality Not available.
Flu Activity Not available.
SPECI KDFI 271303Z AUTO 01005KT 10SM FEW007 SCT070 BKN085 21/18 A3012 RMK AO2 RAE1258 P0000 T02110183

More Conditions Fewer Conditions

10-Day Weather Forecast

Almanac

Astronomy

Aug. 27, 2014 Rise Set
Actual Time 6:59 AM EDT 8:19 PM EDT
Civil Twilight 6:31 AM EDT 8:47 PM EDT
Nautical Twilight 5:56 AM EDT 9:22 PM EDT
Astronomical Twilight 5:20 AM EDT 9:58 PM EDT
Moon 8:56 AM EDT 9:09 PM EDT
Length of Visible Light 14h 16m
Length of Day
13h 19m
Tomorrow will be 2m 35s shorter.
Waxing Crescent, 3% of the Moon is Illuminated
Today
Waxing Crescent
Sep 2
First Quarter
Sep 8
Full
Sep 15
Last Quarter
Sep 24
New

Today's Extremes

State Highs State Lows

Community

WunderPhotos

Upload Photos

1,747,680 photos uploaded!

Nearby

Snow Depth

Station Depth Elevation
No new snow has been reported.

Earthquake Activity

City Distance Mag. Time & Date
No recent earthquake activity has been reported nearby.
Minimum magnitude displayed is 2.5.

Coastal Water Temperatures

Place Temperature
No Stations Reporting

Nearby Weather Stations